createdAt,value
2018-12-26T00:00:27.488Z,84.57
2018-12-26T00:02:55.031Z,84.99
2018-12-26T00:05:22.754Z,87.37
2018-12-26T00:07:50.283Z,86.10
2018-12-26T00:10:17.955Z,86.85
2018-12-26T00:12:45.470Z,90.20
2018-12-26T00:15:13.116Z,87.58
2018-12-26T00:17:40.931Z,87.60
2018-12-26T00:20:08.779Z,86.36
2018-12-26T00:22:36.530Z,89.94
2018-12-26T00:25:04.369Z,88.33
2018-12-26T00:27:31.987Z,88.31
2018-12-26T00:29:59.487Z,89.65
2018-12-26T00:32:27.107Z,90.57
2018-12-26T00:34:54.724Z,90.43
2018-12-26T00:37:22.379Z,89.73
2018-12-26T00:39:49.876Z,89.35
2018-12-26T00:42:17.509Z,90.05
2018-12-26T00:44:45.050Z,88.12
2018-12-26T00:47:12.709Z,88.17
2018-12-26T00:49:40.267Z,89.11
2018-12-26T00:52:07.894Z,89.70
2018-12-26T00:54:35.430Z,87.60
2018-12-26T00:57:02.993Z,90.93
2018-12-26T00:59:30.679Z,88.80
2018-12-26T01:01:58.310Z,87.46
2018-12-26T01:04:25.898Z,87.93
2018-12-26T01:06:53.594Z,84.98
2018-12-26T01:09:21.108Z,88.69
2018-12-26T01:11:49.055Z,85.83
2018-12-26T01:14:16.573Z,88.70
2018-12-26T01:16:44.179Z,84.59
2018-12-26T01:19:11.759Z,85.35
2018-12-26T01:21:39.306Z,87.95
2018-12-26T01:24:06.901Z,91.55
2018-12-26T01:26:34.422Z,88.24
2018-12-26T01:29:01.948Z,87.23
2018-12-26T01:31:29.928Z,91.13
2018-12-26T01:33:57.641Z,86.54
2018-12-26T01:36:25.195Z,89.02
2018-12-26T01:38:52.717Z,84.54
2018-12-26T01:41:20.217Z,86.86
2018-12-26T01:43:47.698Z,91.33
2018-12-26T01:46:15.419Z,89.95
2018-12-26T01:48:43.068Z,92.27
2018-12-26T01:51:10.645Z,91.84
2018-12-26T01:53:38.222Z,90.48
2018-12-26T01:56:05.827Z,89.56
2018-12-26T01:58:33.413Z,88.52
2018-12-26T02:01:01.119Z,90.29
2018-12-26T02:03:28.804Z,90.96
2018-12-26T02:05:56.395Z,91.32
2018-12-26T02:08:24.077Z,92.34
2018-12-26T02:10:51.672Z,89.04
2018-12-26T02:13:19.383Z,91.04
2018-12-26T02:15:47.029Z,93.61
2018-12-26T02:18:14.750Z,91.94
2018-12-26T02:20:42.917Z,89.51
2018-12-26T02:23:10.600Z,88.48
2018-12-26T02:25:38.173Z,90.25
2018-12-26T02:28:05.754Z,94.11
2018-12-26T02:30:33.351Z,93.31
2018-12-26T02:33:01.063Z,93.76
2018-12-26T02:35:29.991Z,92.49
2018-12-26T02:37:57.583Z,92.20
2018-12-26T02:40:25.222Z,94.31
2018-12-26T02:42:52.801Z,89.49
2018-12-26T02:45:20.431Z,93.20
2018-12-26T02:47:48.261Z,90.93
2018-12-26T02:50:34.262Z,88.68
2018-12-26T02:53:02.011Z,89.34
2018-12-26T02:55:29.596Z,89.25
2018-12-26T02:57:57.273Z,90.11
2018-12-26T03:00:24.869Z,89.23
2018-12-26T03:02:52.461Z,86.89
2018-12-26T03:05:20.118Z,86.77
2018-12-26T03:07:47.808Z,87.87
2018-12-26T03:10:17.248Z,88.34
2018-12-26T03:12:44.849Z,88.31
2018-12-26T03:15:12.342Z,89.78
2018-12-26T03:17:39.930Z,89.76
2018-12-26T03:20:07.558Z,90.37
2018-12-26T03:22:35.150Z,92.04
2018-12-26T03:25:02.858Z,93.77
2018-12-26T03:27:30.858Z,93.31
2018-12-26T03:29:58.479Z,94.38
2018-12-26T03:32:26.589Z,92.28
2018-12-26T03:34:54.193Z,93.35
2018-12-26T03:37:21.777Z,94.47
2018-12-26T03:39:49.447Z,92.86
2018-12-26T03:42:17.081Z,95.14
2018-12-26T03:44:44.630Z,96.11
2018-12-26T03:47:12.444Z,94.79
2018-12-26T03:49:40.380Z,95.53
2018-12-26T03:52:08.011Z,95.82
2018-12-26T03:54:35.541Z,95.98
2018-12-26T03:57:06.230Z,95.82
2018-12-26T03:59:32.493Z,93.29
2018-12-26T04:01:59.956Z,95.01
2018-12-26T04:04:27.473Z,91.01
2018-12-26T04:06:55.041Z,89.87
2018-12-26T04:09:22.712Z,88.38
2018-12-26T04:11:50.230Z,89.31
2018-12-26T04:14:17.716Z,89.40
2018-12-26T04:16:45.400Z,92.75
2018-12-26T04:19:12.986Z,90.63
2018-12-26T04:21:40.496Z,92.87
2018-12-26T04:24:08.150Z,94.30
2018-12-26T04:26:36.154Z,94.37
2018-12-26T04:29:03.701Z,94.51
2018-12-26T04:31:31.180Z,93.30
2018-12-26T04:33:58.839Z,93.53
2018-12-26T04:36:26.459Z,94.39
2018-12-26T04:38:53.976Z,93.24
2018-12-26T04:41:21.869Z,94.73
2018-12-26T04:43:51.395Z,94.68
2018-12-26T04:46:18.980Z,95.77
2018-12-26T04:48:46.601Z,96.43
2018-12-26T04:51:14.175Z,96.80
2018-12-26T04:53:41.724Z,96.57
2018-12-26T04:56:09.281Z,96.28
2018-12-26T04:58:36.927Z,96.64
2018-12-26T05:01:04.460Z,96.35
2018-12-26T05:03:32.118Z,95.67
2018-12-26T05:05:59.761Z,95.85
2018-12-26T05:08:27.438Z,95.87
2018-12-26T05:10:55.114Z,95.19
2018-12-26T05:13:22.779Z,96.63
2018-12-26T05:15:50.332Z,96.60
2018-12-26T05:18:18.052Z,96.88
2018-12-26T05:20:45.787Z,96.39
2018-12-26T05:23:13.522Z,96.87
2018-12-26T05:25:41.311Z,97.55
2018-12-26T05:28:08.825Z,97.42
2018-12-26T05:30:37.089Z,96.98
2018-12-26T05:33:04.823Z,96.24
2018-12-26T05:35:32.467Z,97.05
2018-12-26T05:38:00.352Z,95.81
2018-12-26T05:40:28.999Z,97.06
2018-12-26T05:42:56.881Z,97.34
2018-12-26T05:45:24.516Z,97.54
2018-12-26T05:47:52.613Z,97.95
2018-12-26T05:50:20.724Z,96.02
2018-12-26T05:52:48.423Z,96.06
2018-12-26T05:55:16.313Z,96.47
2018-12-26T05:57:44.443Z,95.66
2018-12-26T06:00:12.306Z,95.45
2018-12-26T06:02:40.896Z,94.57
2018-12-26T06:05:08.671Z,95.53
2018-12-26T06:07:36.615Z,94.60
2018-12-26T06:10:04.875Z,95.31
2018-12-26T06:12:32.731Z,96.15
2018-12-26T06:15:01.566Z,96.71
2018-12-26T06:17:29.423Z,96.69
2018-12-26T06:19:57.183Z,96.24
2018-12-26T06:22:24.994Z,95.96
2018-12-26T06:24:52.856Z,95.93
2018-12-26T06:27:20.825Z,95.69
2018-12-26T06:29:48.483Z,93.89
2018-12-26T06:32:17.277Z,91.93
2018-12-26T06:34:45.126Z,90.02
2018-12-26T06:37:12.811Z,91.82
2018-12-26T06:39:40.526Z,91.86
2018-12-26T06:42:08.363Z,89.34
2018-12-26T06:44:36.445Z,89.24
2018-12-26T06:47:04.209Z,88.13
2018-12-26T06:49:31.948Z,89.45
2018-12-26T06:51:59.936Z,88.94
2018-12-26T06:54:27.619Z,88.12
2018-12-26T06:56:55.488Z,89.60
2018-12-26T06:59:24.918Z,89.71
2018-12-26T07:01:52.674Z,88.08
2018-12-26T07:04:20.484Z,87.26
2018-12-26T07:06:48.240Z,88.61
2018-12-26T07:09:16.425Z,89.25
2018-12-26T07:11:44.432Z,89.12
2018-12-26T07:14:12.242Z,88.21
2018-12-26T07:16:40.406Z,83.82
2018-12-26T07:19:08.181Z,80.40
2018-12-26T07:21:36.136Z,79.04
2018-12-26T07:24:03.891Z,78.90
2018-12-26T07:26:31.499Z,79.43
2018-12-26T07:29:01.006Z,78.70
2018-12-26T07:31:28.453Z,78.65
2018-12-26T07:33:56.087Z,78.96
2018-12-26T07:36:23.592Z,78.51
2018-12-26T07:38:51.189Z,76.50
2018-12-26T07:41:18.852Z,75.53
2018-12-26T07:43:46.408Z,77.44
2018-12-26T07:46:14.190Z,76.97
2018-12-26T07:48:41.855Z,75.83
2018-12-26T07:51:09.453Z,76.07
2018-12-26T07:53:37.084Z,74.06
2018-12-26T07:56:04.645Z,76.53
2018-12-26T07:58:32.407Z,77.54
2018-12-26T08:01:00.016Z,78.62
2018-12-26T08:03:27.619Z,78.53
2018-12-26T08:05:55.296Z,77.30
2018-12-26T08:08:22.981Z,75.67
2018-12-26T08:10:50.674Z,76.91
2018-12-26T08:13:18.483Z,76.43
2018-12-26T08:15:46.139Z,77.92
2018-12-26T08:18:13.656Z,77.65
2018-12-26T08:20:41.350Z,78.25
2018-12-26T08:23:09.414Z,78.00
2018-12-26T08:25:37.341Z,77.63
2018-12-26T08:28:05.852Z,77.37
2018-12-26T08:30:33.446Z,77.15
2018-12-26T08:33:01.138Z,77.61
2018-12-26T08:35:28.710Z,77.23
2018-12-26T08:37:56.337Z,78.03
2018-12-26T08:40:23.859Z,79.67
2018-12-26T08:42:51.565Z,80.38
2018-12-26T08:45:19.294Z,79.46
2018-12-26T08:47:46.790Z,78.61
2018-12-26T08:50:14.375Z,80.00
2018-12-26T08:52:42.138Z,79.82
2018-12-26T08:55:09.586Z,80.60
2018-12-26T08:57:37.265Z,80.16
2018-12-26T09:00:06.063Z,81.44
2018-12-26T09:02:33.646Z,83.94
2018-12-26T09:05:01.222Z,82.23
2018-12-26T09:07:29.184Z,83.81
2018-12-26T09:09:56.853Z,82.77
2018-12-26T09:12:24.385Z,82.90
2018-12-26T09:14:52.030Z,83.05
2018-12-26T09:17:19.722Z,83.33
2018-12-26T09:19:47.446Z,83.40
2018-12-26T09:22:15.231Z,83.51
2018-12-26T09:24:42.757Z,83.44
2018-12-26T09:27:12.227Z,84.02
2018-12-26T09:29:39.736Z,84.20
2018-12-26T09:32:07.348Z,82.50
2018-12-26T09:34:34.766Z,82.62
2018-12-26T09:37:02.294Z,84.10
2018-12-26T09:39:29.846Z,83.91
2018-12-26T09:41:57.289Z,84.67
2018-12-26T09:44:24.936Z,84.33
2018-12-26T09:46:52.437Z,85.10
2018-12-26T09:49:19.921Z,84.34
2018-12-26T09:51:47.702Z,83.24
2018-12-26T09:54:15.328Z,83.09
2018-12-26T09:56:43.027Z,83.00
2018-12-26T09:59:10.566Z,83.80
2018-12-26T10:01:38.343Z,84.18
2018-12-26T10:04:07.615Z,84.98
2018-12-26T10:06:35.485Z,83.97
2018-12-26T10:09:04.476Z,83.83
2018-12-26T10:11:32.487Z,84.89
2018-12-26T10:14:00.314Z,85.07
2018-12-26T10:16:28.436Z,84.45
2018-12-26T10:18:55.863Z,84.22
2018-12-26T10:21:23.481Z,85.07
2018-12-26T10:23:51.160Z,82.99
2018-12-26T10:26:18.873Z,83.24
2018-12-26T10:28:46.784Z,83.39
2018-12-26T10:31:14.480Z,83.01
2018-12-26T10:33:42.100Z,82.28
2018-12-26T10:36:09.795Z,82.55
2018-12-26T10:38:37.326Z,82.06
2018-12-26T10:41:04.826Z,80.68
2018-12-26T10:43:32.410Z,81.56
2018-12-26T10:46:00.000Z,82.82
2018-12-26T10:48:27.656Z,81.33
2018-12-26T10:50:55.363Z,81.38
2018-12-26T10:53:23.082Z,81.44
2018-12-26T10:55:50.700Z,82.18
2018-12-26T10:58:18.263Z,81.16
2018-12-26T11:00:45.786Z,81.51
2018-12-26T11:03:13.525Z,81.08
2018-12-26T11:05:41.016Z,81.00
2018-12-26T11:08:08.584Z,80.27
2018-12-26T11:10:37.045Z,81.27
2018-12-26T11:13:04.806Z,81.66
2018-12-26T11:15:32.420Z,81.44
2018-12-26T11:18:00.235Z,82.21
2018-12-26T11:20:27.896Z,81.72
2018-12-26T11:22:55.616Z,83.07
2018-12-26T11:25:24.115Z,80.33
2018-12-26T11:27:53.017Z,79.93
2018-12-26T11:30:21.217Z,81.72
2018-12-26T11:32:49.041Z,82.83
2018-12-26T11:35:17.096Z,82.05
2018-12-26T11:37:44.879Z,81.14
2018-12-26T11:40:12.648Z,82.09
2018-12-26T11:42:40.434Z,81.21
2018-12-26T11:45:08.513Z,80.31
2018-12-26T11:47:36.258Z,80.38
2018-12-26T11:50:04.965Z,81.75
2018-12-26T11:52:32.497Z,81.30
2018-12-26T11:55:00.244Z,80.91
2018-12-26T11:57:27.886Z,80.74
2018-12-26T11:59:55.750Z,80.38
2018-12-26T12:02:23.360Z,80.89
2018-12-26T12:04:51.260Z,82.72
2018-12-26T12:07:18.999Z,80.58
2018-12-26T12:09:46.698Z,81.94
2018-12-26T12:12:14.560Z,82.72
2018-12-26T12:14:42.587Z,83.31
2018-12-26T12:17:10.177Z,82.74
2018-12-26T12:19:37.858Z,83.32
2018-12-26T12:22:05.475Z,83.35
2018-12-26T12:24:32.919Z,82.57
2018-12-26T12:27:00.387Z,82.77
2018-12-26T12:29:35.815Z,84.23
2018-12-26T12:31:57.628Z,82.99
2018-12-26T12:34:25.269Z,81.91
2018-12-26T12:36:52.975Z,81.93
2018-12-26T12:39:20.541Z,81.87
2018-12-26T12:41:48.082Z,82.69
2018-12-26T12:44:15.592Z,84.45
2018-12-26T12:46:43.100Z,82.47
2018-12-26T12:49:11.128Z,82.48
2018-12-26T12:51:39.072Z,83.15
2018-12-26T12:54:06.724Z,82.01
2018-12-26T12:56:34.547Z,82.99
2018-12-26T12:59:02.469Z,82.29
2018-12-26T13:01:30.459Z,82.61
2018-12-26T13:03:58.039Z,81.21
2018-12-26T13:06:25.630Z,81.18
2018-12-26T13:08:53.105Z,82.36
2018-12-26T13:11:20.635Z,81.84
2018-12-26T13:13:48.347Z,83.30
2018-12-26T13:16:16.063Z,82.34
2018-12-26T13:18:43.825Z,82.40
2018-12-26T13:21:11.648Z,83.04
2018-12-26T13:23:39.540Z,83.37
2018-12-26T13:26:07.253Z,84.81
2018-12-26T13:28:34.959Z,85.55
2018-12-26T13:31:05.091Z,83.88
2018-12-26T13:33:32.525Z,84.61
2018-12-26T13:36:00.348Z,85.72
2018-12-26T13:38:28.093Z,86.28
2018-12-26T13:40:55.957Z,86.26
2018-12-26T13:43:23.704Z,86.19
2018-12-26T13:45:52.153Z,86.87
2018-12-26T13:48:19.729Z,85.62
2018-12-26T13:50:47.520Z,86.54
2018-12-26T13:53:15.173Z,86.15
2018-12-26T13:55:42.936Z,86.09
2018-12-26T13:58:10.680Z,86.97
2018-12-26T14:00:38.198Z,86.27
2018-12-26T14:03:05.714Z,86.67
2018-12-26T14:05:34.581Z,87.09
2018-12-26T14:08:02.387Z,86.52
2018-12-26T14:10:30.031Z,86.75
2018-12-26T14:12:57.683Z,85.72
2018-12-26T14:15:26.243Z,85.71
2018-12-26T14:17:54.134Z,86.94
2018-12-26T14:20:21.847Z,87.19
2018-12-26T14:22:49.384Z,86.69
2018-12-26T14:25:17.104Z,87.07
2018-12-26T14:27:44.719Z,87.97
2018-12-26T14:30:12.465Z,86.91
2018-12-26T14:32:40.386Z,86.53
2018-12-26T14:35:07.895Z,88.48
2018-12-26T14:37:35.599Z,89.12
2018-12-26T14:40:03.862Z,88.24
2018-12-26T14:42:31.564Z,90.00
2018-12-26T14:44:59.214Z,89.22
2018-12-26T14:47:27.713Z,88.68
2018-12-26T14:49:55.479Z,89.93
2018-12-26T14:52:23.143Z,90.00
2018-12-26T14:54:51.139Z,89.55
2018-12-26T14:57:19.052Z,90.44
2018-12-26T14:59:46.691Z,90.73
2018-12-26T15:02:14.778Z,89.21
2018-12-26T15:04:42.921Z,89.04
2018-12-26T15:07:10.628Z,88.90
2018-12-26T15:09:39.985Z,88.05
2018-12-26T15:12:07.781Z,88.73
2018-12-26T15:14:35.907Z,88.74
2018-12-26T15:17:03.881Z,88.84
2018-12-26T15:19:31.595Z,88.79
2018-12-26T15:22:01.444Z,89.47
2018-12-26T15:24:29.458Z,89.65
2018-12-26T15:26:57.421Z,90.11
2018-12-26T15:29:25.205Z,89.41
2018-12-26T15:31:52.787Z,89.59
2018-12-26T15:34:20.536Z,91.54
2018-12-26T15:36:48.513Z,92.16
2018-12-26T15:39:16.269Z,92.96
2018-12-26T15:41:45.113Z,93.90
2018-12-26T15:44:12.737Z,92.35
2018-12-26T15:46:40.468Z,92.85
2018-12-26T15:49:08.218Z,93.27
2018-12-26T15:51:35.924Z,92.14
2018-12-26T15:54:03.865Z,91.88
2018-12-26T15:56:31.718Z,94.03
2018-12-26T15:58:59.632Z,94.09
2018-12-26T16:01:27.278Z,94.43
2018-12-26T16:03:54.934Z,95.42
2018-12-26T16:06:22.649Z,94.85
2018-12-26T16:08:50.447Z,92.82
2018-12-26T16:11:18.163Z,92.05
2018-12-26T16:13:45.780Z,92.87
2018-12-26T16:16:13.746Z,92.27
2018-12-26T16:18:41.597Z,92.71
2018-12-26T16:21:09.545Z,92.57
2018-12-26T16:23:37.231Z,92.06
2018-12-26T16:26:05.010Z,90.98
2018-12-26T16:28:32.734Z,91.24
2018-12-26T16:31:02.171Z,91.64
2018-12-26T16:33:30.063Z,90.47
2018-12-26T16:35:57.776Z,89.84
2018-12-26T16:38:25.921Z,90.43
2018-12-26T16:40:54.086Z,93.53
2018-12-26T16:43:21.963Z,92.94
2018-12-26T16:45:49.934Z,95.05
2018-12-26T16:48:17.586Z,95.29
2018-12-26T16:50:45.184Z,95.62
2018-12-26T16:53:13.030Z,95.74
2018-12-26T16:55:40.743Z,95.38
2018-12-26T16:58:08.494Z,94.74
2018-12-26T17:00:36.249Z,96.06
2018-12-26T17:03:03.694Z,96.81
2018-12-26T17:05:31.672Z,95.51
2018-12-26T17:07:59.270Z,95.34
2018-12-26T17:10:26.790Z,95.53
2018-12-26T17:12:54.496Z,96.90
2018-12-26T17:15:22.163Z,94.90
2018-12-26T17:17:49.820Z,94.61
2018-12-26T17:20:17.374Z,94.46
2018-12-26T17:22:44.949Z,94.96
2018-12-26T17:25:14.652Z,93.41
2018-12-26T17:27:42.461Z,91.42
2018-12-26T17:30:10.341Z,90.99
2018-12-26T17:32:37.961Z,92.13
2018-12-26T17:35:05.548Z,92.19
2018-12-26T17:37:33.116Z,90.71
2018-12-26T17:40:00.894Z,88.30
2018-12-26T17:42:28.718Z,91.10
2018-12-26T17:44:56.273Z,89.31
2018-12-26T17:47:23.865Z,90.76
2018-12-26T17:50:28.913Z,89.23
2018-12-26T17:52:56.677Z,91.09
2018-12-26T17:55:53.252Z,92.63
2018-12-26T17:58:21.058Z,93.35
2018-12-26T18:01:00.824Z,93.21
2018-12-26T18:03:28.369Z,93.81
2018-12-26T18:05:56.063Z,92.80
2018-12-26T18:08:23.861Z,93.24
2018-12-26T18:10:51.617Z,93.52
2018-12-26T18:13:19.186Z,93.30
2018-12-26T18:15:47.289Z,91.94
2018-12-26T18:18:15.339Z,92.35
2018-12-26T18:20:43.179Z,92.20
2018-12-26T18:23:11.127Z,93.65
2018-12-26T18:25:38.708Z,93.37
2018-12-26T18:28:06.535Z,91.09
2018-12-26T18:30:34.193Z,91.78
2018-12-26T18:33:01.764Z,92.12
2018-12-26T18:35:30.197Z,93.02
2018-12-26T18:37:58.109Z,94.48
2018-12-26T18:40:26.070Z,93.16
2018-12-26T18:42:54.961Z,94.47
2018-12-26T18:45:22.775Z,94.76
2018-12-26T18:47:52.039Z,94.24
2018-12-26T18:50:19.969Z,94.20
2018-12-26T18:52:48.304Z,93.24
2018-12-26T18:55:16.325Z,92.42
2018-12-26T18:57:44.434Z,92.68
2018-12-26T19:00:13.509Z,93.46
2018-12-26T19:02:41.905Z,91.42
2018-12-26T19:05:11.068Z,91.72
2018-12-26T19:07:39.131Z,92.01
2018-12-26T19:10:08.703Z,90.51
2018-12-26T19:12:36.511Z,91.04
2018-12-26T19:15:05.008Z,89.41
2018-12-26T19:17:32.599Z,90.44
2018-12-26T19:20:00.449Z,90.41
2018-12-26T19:22:28.235Z,89.50
2018-12-26T19:24:55.964Z,91.19
2018-12-26T19:27:23.972Z,91.11
2018-12-26T19:29:59.170Z,91.23
2018-12-26T19:32:21.282Z,92.65
2018-12-26T19:34:48.844Z,94.02
2018-12-26T19:37:16.816Z,94.33
2018-12-26T19:39:44.364Z,95.33
2018-12-26T19:42:12.062Z,93.75
2018-12-26T19:44:39.601Z,93.76
2018-12-26T19:47:08.590Z,93.17
2018-12-26T19:49:38.142Z,94.63
2018-12-26T19:52:06.173Z,95.19
2018-12-26T19:54:34.087Z,92.11
2018-12-26T19:57:02.170Z,94.74
2018-12-26T19:59:29.739Z,95.09
2018-12-26T20:01:57.382Z,95.39
2018-12-26T20:04:25.317Z,95.08
2018-12-26T20:06:53.000Z,96.27
2018-12-26T20:09:20.819Z,94.59
2018-12-26T20:11:48.824Z,96.65
2018-12-26T20:14:16.351Z,96.20
2018-12-26T20:16:44.253Z,96.55
2018-12-26T20:19:12.343Z,96.28
2018-12-26T20:21:40.033Z,96.76
2018-12-26T20:24:07.897Z,96.14
2018-12-26T20:26:35.752Z,97.32
2018-12-26T20:29:03.477Z,96.56
2018-12-26T20:31:31.032Z,96.68
2018-12-26T20:33:58.747Z,97.24
2018-12-26T20:36:28.579Z,96.61
2018-12-26T20:38:56.290Z,97.84
2018-12-26T20:41:23.891Z,97.90
2018-12-26T20:43:51.829Z,98.67
2018-12-26T20:46:19.546Z,98.93
2018-12-26T20:48:47.113Z,98.39
2018-12-26T20:51:14.787Z,98.54
2018-12-26T20:53:42.795Z,98.97
2018-12-26T20:56:10.476Z,100.00
2018-12-26T20:58:38.231Z,99.50
2018-12-26T21:01:08.016Z,99.44
2018-12-26T21:03:35.632Z,99.24
2018-12-26T21:06:03.202Z,99.12
2018-12-26T21:08:31.055Z,97.97
2018-12-26T21:10:58.658Z,97.90
2018-12-26T21:13:26.431Z,97.57
2018-12-26T21:15:54.070Z,97.36
2018-12-26T21:18:21.669Z,98.62
2018-12-26T21:20:49.612Z,99.08
2018-12-26T21:23:17.401Z,99.09
2018-12-26T21:25:46.767Z,99.55
2018-12-26T21:28:16.688Z,99.82
2018-12-26T21:30:45.014Z,100.00
2018-12-26T21:33:12.742Z,100.00
2018-12-26T21:35:40.384Z,100.00
2018-12-26T21:38:08.081Z,100.00
2018-12-26T21:40:35.702Z,99.35
2018-12-26T21:43:03.402Z,98.70
2018-12-26T21:45:31.101Z,98.03
2018-12-26T21:47:58.630Z,99.22
2018-12-26T21:50:26.215Z,99.00
2018-12-26T21:52:55.765Z,99.37
2018-12-26T21:55:26.264Z,99.14
2018-12-26T21:57:54.129Z,99.08
2018-12-26T22:00:21.792Z,99.40
2018-12-26T22:02:49.487Z,98.79
2018-12-26T22:05:18.575Z,99.71
2018-12-26T22:07:46.850Z,98.67
2018-12-26T22:10:14.568Z,99.28
2018-12-26T22:12:42.236Z,99.80
2018-12-26T22:15:09.907Z,100.00
2018-12-26T22:17:37.456Z,97.99
2018-12-26T22:20:06.127Z,98.16
2018-12-26T22:22:34.446Z,99.46
2018-12-26T22:25:02.152Z,99.50
2018-12-26T22:27:29.978Z,99.52
2018-12-26T22:29:57.783Z,99.18
2018-12-26T22:32:30.570Z,99.17
2018-12-26T22:34:56.026Z,99.65
2018-12-26T22:37:25.419Z,99.41
2018-12-26T22:39:55.248Z,99.97
2018-12-26T22:42:23.678Z,100.00
2018-12-26T22:44:51.474Z,100.00
2018-12-26T22:47:19.265Z,100.00
2018-12-26T22:49:48.851Z,100.00
2018-12-26T22:52:16.492Z,98.90
2018-12-26T22:54:46.177Z,99.33
2018-12-26T22:57:14.233Z,99.72
2018-12-26T22:59:41.780Z,100.00
2018-12-26T23:02:09.611Z,100.00
2018-12-26T23:04:37.255Z,98.71
2018-12-26T23:07:04.808Z,96.08
2018-12-26T23:09:32.439Z,97.09
2018-12-26T23:11:59.969Z,98.91
2018-12-26T23:14:27.643Z,99.66
2018-12-26T23:16:55.263Z,100.00
2018-12-26T23:19:22.821Z,100.00
2018-12-26T23:21:50.427Z,98.53
2018-12-26T23:24:18.035Z,99.81
2018-12-26T23:26:45.719Z,97.69
2018-12-26T23:29:13.330Z,98.44
2018-12-26T23:31:40.944Z,98.93
2018-12-26T23:34:08.555Z,98.66
2018-12-26T23:36:36.042Z,98.90
2018-12-26T23:39:05.808Z,97.09
2018-12-26T23:41:33.465Z,96.47
2018-12-26T23:44:01.358Z,97.33
2018-12-26T23:46:28.965Z,96.65
2018-12-26T23:48:56.554Z,96.20
2018-12-26T23:51:24.058Z,98.53
2018-12-26T23:53:51.579Z,98.44
2018-12-26T23:56:19.179Z,97.52
2018-12-26T23:58:46.766Z,98.08
